Time;durP1;ratioP1;P1;durP2;ratioP2;P2;SDS_P1;SDS_P2;PMS_P1;PMS_P2;Temp;Humidity;BMP_temperature;BMP_pressure;BME280_temperature;BME280_humidity;BME280_pressure;Samples;Min_cycle;Max_cycle;Signal;HPM_P1;HPM_P2
2023/05/10 00:01:12;;;;;;;2.28;1.27;;;14.10;99.90;;;;;;5057920;28;20032;-80
2023/05/10 00:03:38;;;;;;;1.90;1.23;;;14.10;99.90;;;;;;5062715;28;20380;-80
2023/05/10 00:06:03;;;;;;;1.83;1.02;;;14.10;99.90;;;;;;5077615;28;20473;-80
2023/05/10 00:08:29;;;;;;;1.67;1.00;;;14.10;99.90;;;;;;5077549;28;20041;-80
2023/05/10 00:10:55;;;;;;;2.92;1.10;;;14.10;99.90;;;;;;5078950;28;20574;-80
2023/05/10 00:13:21;;;;;;;2.45;1.30;;;14.20;99.90;;;;;;5060370;28;20442;-80
2023/05/10 00:15:46;;;;;;;2.28;1.20;;;14.20;99.90;;;;;;5076714;28;20028;-80
2023/05/10 00:18:12;;;;;;;3.50;1.35;;;14.30;99.90;;;;;;5078432;28;20074;-80
2023/05/10 00:20:37;;;;;;;3.17;1.40;;;14.30;99.90;;;;;;5076342;28;20032;-79
2023/05/10 00:23:03;;;;;;;2.45;1.23;;;14.30;99.90;;;;;;5076152;28;20067;-80
2023/05/10 00:25:29;;;;;;;1.77;1.20;;;14.30;99.90;;;;;;5076110;28;20029;-80
2023/05/10 00:27:55;;;;;;;4.10;1.48;;;14.30;99.90;;;;;;5059241;28;20028;-79
2023/05/10 00:30:21;;;;;;;1.60;1.00;;;14.30;99.90;;;;;;5076094;28;20032;-80
2023/05/10 00:32:47;;;;;;;2.17;1.27;;;14.40;99.90;;;;;;5074094;28;20033;-80
2023/05/10 00:35:13;;;;;;;2.92;1.80;;;14.30;99.90;;;;;;5039162;28;20040;-80
2023/05/10 00:37:39;;;;;;;3.20;1.83;;;14.30;99.90;;;;;;5057309;28;20024;-80
2023/05/10 00:40:06;;;;;;;4.75;2.80;;;14.30;99.90;;;;;;5022689;28;20025;-80
2023/05/10 00:42:31;;;;;;;8.35;4.70;;;14.30;99.90;;;;;;5051520;28;20056;-79
2023/05/10 00:44:57;;;;;;;8.27;4.53;;;14.30;99.90;;;;;;5077005;28;20129;-80
2023/05/10 00:47:23;;;;;;;8.15;4.28;;;14.30;99.90;;;;;;5059173;28;20028;-80
2023/05/10 00:49:50;;;;;;;6.20;3.08;;;14.30;99.90;;;;;;5058902;28;20031;-80
2023/05/10 00:52:15;;;;;;;4.80;2.20;;;14.30;99.90;;;;;;5059180;28;20033;-79
2023/05/10 00:54:42;;;;;;;3.15;1.67;;;14.20;99.90;;;;;;5076911;28;20112;-80
2023/05/10 00:57:07;;;;;;;2.55;1.38;;;14.20;99.90;;;;;;5058765;28;20032;-80
2023/05/10 00:59:33;;;;;;;2.35;1.55;;;14.20;99.90;;;;;;5059112;28;20435;-80
2023/05/10 01:01:59;;;;;;;2.33;1.35;;;14.20;99.90;;;;;;5059536;28;20021;-80
2023/05/10 01:04:28;;;;;;;2.30;1.33;;;14.20;99.90;;;;;;5042004;28;20025;-80
2023/05/10 01:06:54;;;;;;;1.70;1.02;;;14.20;99.90;;;;;;5042029;28;20119;-80
2023/05/10 01:09:21;;;;;;;1.60;1.05;;;14.10;99.90;;;;;;5076745;28;20029;-80
2023/05/10 01:11:48;;;;;;;3.38;1.17;;;13.90;99.90;;;;;;5059043;28;20079;-80
2023/05/10 01:14:17;;;;;;;2.95;1.10;;;13.80;99.90;;;;;;5058646;28;20033;-79
2023/05/10 01:16:45;;;;;;;2.55;1.10;;;13.70;99.90;;;;;;5058595;28;20101;-80
2023/05/10 01:19:21;;;;;;;2.30;1.10;;;13.60;99.90;;;;;;5058550;28;20099;-79
2023/05/10 01:22:02;;;;;;;2.20;1.02;;;13.50;99.90;;;;;;5076653;28;20096;-80
2023/05/10 01:24:46;;;;;;;2.22;1.20;;;13.50;99.90;;;;;;5061394;28;20078;-80
2023/05/10 01:27:19;;;;;;;2.38;1.10;;;13.50;99.90;;;;;;5073669;28;20109;-80
2023/05/10 01:30:16;;;;;;;3.20;1.20;;;13.50;99.90;;;;;;5076492;28;20036;-80
2023/05/10 01:32:41;;;;;;;1.85;1.13;;;13.60;99.90;;;;;;5074038;28;20025;-80
2023/05/10 01:35:32;;;;;;;1.42;0.90;;;13.60;99.90;;;;;;5055022;28;20032;-80
2023/05/10 01:38:09;;;;;;;1.98;1.05;;;13.60;99.90;;;;;;5045761;28;20554;-80
2023/05/10 01:40:46;;;;;;;2.00;0.98;;;13.50;99.90;;;;;;5056870;28;20039;-80
2023/05/10 01:43:19;;;;;;;3.22;1.27;;;13.40;99.90;;;;;;5038434;28;20021;-80
2023/05/10 01:46:10;;;;;;;2.25;1.23;;;13.40;99.90;;;;;;5038137;28;20029;-80
2023/05/10 01:48:47;;;;;;;2.10;1.08;;;13.50;99.90;;;;;;5054861;28;20025;-80
2023/05/10 01:51:21;;;;;;;1.70;1.10;;;13.40;99.90;;;;;;5056661;28;20021;-80
2023/05/10 01:53:48;;;;;;;2.00;1.20;;;13.40;99.90;;;;;;5056129;28;20021;-80
2023/05/10 01:56:15;;;;;;;1.70;1.10;;;13.40;99.90;;;;;;5045477;28;20123;-80
2023/05/10 01:58:45;;;;;;;1.80;1.00;;;13.40;99.90;;;;;;5058351;28;20115;-80
2023/05/10 02:01:12;;;;;;;1.83;1.10;;;13.40;99.90;;;;;;5069851;28;20017;-80
2023/05/10 02:03:39;;;;;;;3.22;1.10;;;13.40;99.90;;;;;;5074953;28;20039;-81
2023/05/10 02:06:07;;;;;;;3.30;1.00;;;13.40;99.90;;;;;;5064587;28;20025;-81
2023/05/10 02:08:37;;;;;;;3.88;1.35;;;13.50;99.90;;;;;;5038084;28;20021;-81
2023/05/10 02:11:04;;;;;;;4.57;1.00;;;13.50;99.90;;;;;;5055673;28;20031;-82
2023/05/10 02:13:32;;;;;;;2.97;1.10;;;13.50;99.90;;;;;;5053468;28;20500;-82
2023/05/10 02:15:59;;;;;;;2.38;1.15;;;13.50;99.90;;;;;;5066508;28;20377;-82
2023/05/10 02:18:26;;;;;;;1.98;1.30;;;13.60;99.90;;;;;;5074134;28;20025;-82
2023/05/10 02:20:57;;;;;;;1.85;1.10;;;13.60;99.90;;;;;;5057261;28;20025;-82
2023/05/10 02:23:24;;;;;;;2.33;1.10;;;13.60;99.90;;;;;;5074461;28;20539;-82
2023/05/10 02:25:52;;;;;;;3.25;1.40;;;13.50;99.90;;;;;;5057209;28;20033;-82
2023/05/10 02:28:19;;;;;;;2.08;1.30;;;13.40;99.90;;;;;;5074148;28;20051;-82
2023/05/10 02:30:46;;;;;;;2.17;1.27;;;13.30;99.90;;;;;;5040504;28;20024;-82
2023/05/10 02:33:13;;;;;;;4.88;1.70;;;13.30;99.90;;;;;;5057013;28;20362;-83
2023/05/10 02:35:39;;;;;;;3.40;2.03;;;13.20;99.90;;;;;;5056560;28;20078;-83
2023/05/10 02:38:07;;;;;;;2.65;1.90;;;13.20;99.90;;;;;;5056851;28;20025;-83
2023/05/10 02:40:33;;;;;;;3.05;2.20;;;13.20;99.90;;;;;;5073978;28;20020;-84
2023/05/10 02:43:02;;;;;;;4.22;2.13;;;13.20;99.90;;;;;;5056618;28;20021;-84
2023/05/10 02:45:31;;;;;;;4.45;2.25;;;13.30;99.90;;;;;;5074427;28;20017;-84
2023/05/10 02:47:58;;;;;;;3.55;2.35;;;13.30;99.90;;;;;;5073254;28;20028;-84
2023/05/10 02:50:27;;;;;;;3.63;2.05;;;13.20;99.90;;;;;;5074263;28;20063;-85
2023/05/10 02:52:59;;;;;;;3.72;1.83;;;13.20;99.90;;;;;;5056261;28;20123;-84
2023/05/10 02:55:28;;;;;;;2.05;1.58;;;13.10;99.90;;;;;;5053202;28;20047;-84
2023/05/10 02:58:00;;;;;;;3.15;1.52;;;13.10;99.90;;;;;;5052824;28;20433;-85
2023/05/10 03:00:25;;;;;;;3.35;1.50;;;13.10;99.90;;;;;;5036492;28;20028;-85
2023/05/10 03:02:52;;;;;;;2.50;1.55;;;13.10;99.90;;;;;;5055841;28;20025;-84
2023/05/10 03:05:18;;;;;;;2.92;1.65;;;13.20;99.90;;;;;;5055315;28;20047;-85
2023/05/10 03:07:45;;;;;;;2.97;1.88;;;13.20;99.90;;;;;;5071316;28;20060;-84
2023/05/10 03:10:11;;;;;;;4.32;1.92;;;13.20;99.90;;;;;;5034053;28;20559;-84
2023/05/10 03:13:06;;;;;;;2.85;1.80;;;13.20;99.90;;;;;;5036326;28;20056;-85
2023/05/10 03:15:45;;;;;;;2.65;1.70;;;13.00;99.90;;;;;;5053829;28;20024;-85
2023/05/10 03:18:21;;;;;;;3.53;1.73;;;13.00;99.90;;;;;;5052161;28;20123;-84
2023/05/10 03:20:55;;;;;;;3.17;2.30;;;12.90;99.90;;;;;;5063834;28;20012;-84
2023/05/10 03:23:40;;;;;;;4.53;3.03;;;12.90;99.90;;;;;;5048152;28;20089;-85
2023/05/10 03:26:07;;;;;;;4.97;2.80;;;12.90;99.90;;;;;;5056007;28;20028;-85
2023/05/10 03:28:35;;;;;;;5.57;2.30;;;13.00;99.90;;;;;;5055359;28;20032;-85
2023/05/10 03:31:02;;;;;;;3.20;2.15;;;13.00;99.90;;;;;;5055704;28;20032;-85
2023/05/10 03:33:28;;;;;;;4.00;2.50;;;13.10;99.90;;;;;;5064760;28;20036;-85
2023/05/10 03:35:54;;;;;;;3.72;2.05;;;13.10;99.90;;;;;;5052259;28;20485;-85
2023/05/10 03:38:19;;;;;;;3.53;1.85;;;13.10;99.90;;;;;;5045301;28;20123;-81
2023/05/10 03:40:45;;;;;;;4.75;1.90;;;13.10;99.90;;;;;;5056512;28;20028;-81
2023/05/10 03:43:11;;;;;;;2.63;1.75;;;13.20;99.90;;;;;;5041054;28;20369;-81
2023/05/10 03:45:36;;;;;;;3.53;1.60;;;13.10;99.90;;;;;;5046340;28;20436;-81
2023/05/10 03:48:02;;;;;;;2.95;1.60;;;13.10;99.90;;;;;;5068537;28;20090;-81
2023/05/10 03:50:28;;;;;;;3.50;1.60;;;13.10;99.90;;;;;;5057087;28;20369;-81
2023/05/10 03:52:54;;;;;;;2.90;1.65;;;13.10;99.90;;;;;;5040257;28;20485;-81
2023/05/10 03:55:19;;;;;;;3.45;1.65;;;13.10;99.90;;;;;;5037473;28;20025;-81
2023/05/10 03:57:45;;;;;;;3.53;1.65;;;13.10;99.90;;;;;;5054874;28;20108;-80
2023/05/10 04:00:11;;;;;;;2.92;1.70;;;13.10;99.90;;;;;;5057595;28;20025;-80
2023/05/10 04:02:37;;;;;;;7.38;1.70;;;13.00;99.90;;;;;;5057548;28;20020;-80
2023/05/10 04:05:03;;;;;;;3.20;1.73;;;13.00;99.90;;;;;;5052530;28;20033;-81
2023/05/10 04:07:29;;;;;;;2.95;1.77;;;13.00;99.90;;;;;;5054262;28;20033;-80
2023/05/10 04:09:54;;;;;;;3.30;1.75;;;13.00;99.90;;;;;;5055347;28;20029;-80
2023/05/10 04:12:20;;;;;;;3.58;2.00;;;13.00;99.90;;;;;;5037734;28;20120;-80
2023/05/10 04:14:46;;;;;;;2.70;1.73;;;13.00;99.90;;;;;;5055460;28;20083;-80
2023/05/10 04:17:11;;;;;;;3.78;1.67;;;12.90;99.90;;;;;;5054317;28;20039;-80
2023/05/10 04:19:37;;;;;;;2.55;1.55;;;12.90;99.90;;;;;;5053961;28;20055;-80
2023/05/10 04:22:03;;;;;;;2.15;1.40;;;12.90;99.90;;;;;;5053734;28;20485;-80
2023/05/10 04:24:28;;;;;;;3.22;1.55;;;12.90;99.90;;;;;;5036906;28;20025;-80
2023/05/10 04:26:55;;;;;;;2.97;1.75;;;12.90;99.90;;;;;;5054044;28;20485;-80
2023/05/10 04:29:20;;;;;;;4.75;1.90;;;12.90;99.90;;;;;;5053410;28;20100;-80
2023/05/10 04:31:46;;;;;;;4.40;1.85;;;12.90;99.90;;;;;;5036195;28;20485;-80
2023/05/10 04:34:12;;;;;;;2.95;1.80;;;12.90;99.90;;;;;;5054538;28;20033;-80
2023/05/10 04:36:38;;;;;;;3.70;1.60;;;12.90;99.90;;;;;;5058711;28;20025;-80
2023/05/10 04:39:03;;;;;;;2.50;1.58;;;12.80;99.90;;;;;;5073316;28;20046;-80
2023/05/10 04:41:29;;;;;;;2.40;1.50;;;12.80;99.90;;;;;;5073109;28;20025;-80
2023/05/10 04:43:55;;;;;;;2.97;1.70;;;12.80;99.90;;;;;;5060867;28;20456;-80
2023/05/10 04:46:21;;;;;;;3.50;1.80;;;12.80;99.90;;;;;;5060842;28;20062;-80
2023/05/10 04:48:47;;;;;;;3.30;1.50;;;12.80;99.90;;;;;;5076947;28;20546;-80
2023/05/10 04:51:12;;;;;;;4.90;1.98;;;12.80;99.90;;;;;;5060213;28;20025;-80
2023/05/10 04:53:38;;;;;;;3.40;2.00;;;12.70;99.90;;;;;;5043370;28;20025;-80
2023/05/10 04:56:04;;;;;;;5.15;2.30;;;12.60;99.90;;;;;;5043054;28;20043;-80
2023/05/10 04:58:30;;;;;;;5.30;2.28;;;12.60;99.90;;;;;;5077999;28;20099;-80
2023/05/10 05:00:55;;;;;;;3.50;2.05;;;12.50;99.90;;;;;;5076604;28;20025;-80
2023/05/10 05:03:22;;;;;;;3.42;2.15;;;12.40;99.90;;;;;;5084414;28;20078;-80
2023/05/10 05:05:47;;;;;;;3.58;2.05;;;12.30;99.90;;;;;;5080381;28;20067;-80
2023/05/10 05:08:13;;;;;;;3.60;2.08;;;12.30;99.90;;;;;;5062113;28;20483;-80
2023/05/10 05:10:39;;;;;;;4.78;2.03;;;12.30;99.90;;;;;;5073716;28;20112;-80
2023/05/10 05:13:05;;;;;;;3.97;1.98;;;12.30;99.90;;;;;;5057087;28;20385;-80
2023/05/10 05:15:31;;;;;;;2.75;1.65;;;12.20;99.90;;;;;;5067765;28;20044;-80
2023/05/10 05:17:56;;;;;;;4.40;1.80;;;12.20;99.90;;;;;;5041637;28;20033;-80
2023/05/10 05:20:22;;;;;;;2.67;1.60;;;12.20;99.90;;;;;;5038896;28;20384;-80
2023/05/10 05:22:48;;;;;;;3.38;1.60;;;12.20;99.90;;;;;;5022688;28;20025;-80
2023/05/10 05:25:15;;;;;;;3.30;1.58;;;12.30;99.90;;;;;;5039370;28;20572;-80
2023/05/10 05:27:40;;;;;;;3.30;1.42;;;12.40;99.90;;;;;;5039118;28;20029;-80
2023/05/10 05:30:07;;;;;;;2.90;1.40;;;12.50;99.90;;;;;;5039265;28;20029;-80
2023/05/10 05:32:33;;;;;;;2.53;1.52;;;12.50;99.90;;;;;;5038650;28;20036;-80
2023/05/10 05:34:59;;;;;;;2.08;1.27;;;12.60;99.90;;;;;;5039118;28;20033;-80
2023/05/10 05:37:25;;;;;;;2.75;1.50;;;12.70;99.90;;;;;;5055842;28;20055;-80
2023/05/10 05:39:50;;;;;;;3.05;1.77;;;12.70;99.90;;;;;;5066818;28;20583;-80
2023/05/10 05:42:18;;;;;;;2.30;1.50;;;12.80;99.90;;;;;;5074918;28;20024;-79
2023/05/10 05:44:44;;;;;;;2.40;1.52;;;12.80;99.90;;;;;;5064011;28;20036;-79
2023/05/10 05:47:10;;;;;;;3.38;1.60;;;12.80;99.90;;;;;;5039250;28;20025;-79
2023/05/10 05:49:36;;;;;;;2.70;1.77;;;12.80;99.90;;;;;;5055918;28;20032;-79
2023/05/10 05:52:03;;;;;;;3.40;1.48;;;12.80;99.90;;;;;;5038071;28;20037;-79
2023/05/10 05:54:29;;;;;;;3.05;1.50;;;12.90;99.90;;;;;;5039579;28;20558;-80
2023/05/10 05:56:56;;;;;;;2.78;1.70;;;12.90;99.90;;;;;;5039028;28;20032;-80
2023/05/10 05:59:22;;;;;;;5.18;1.73;;;13.00;99.90;;;;;;5039011;28;20021;-80
2023/05/10 06:01:48;;;;;;;3.58;1.63;;;13.00;99.90;;;;;;5074823;28;20021;-79
2023/05/10 06:04:13;;;;;;;2.85;1.67;;;12.90;99.90;;;;;;5039141;28;20025;-80
2023/05/10 06:06:39;;;;;;;3.45;2.00;;;12.90;99.90;;;;;;5055170;28;20035;-80
2023/05/10 06:09:04;;;;;;;2.85;1.58;;;12.80;99.90;;;;;;5060589;28;20473;-80
2023/05/10 06:11:32;;;;;;;4.00;1.95;;;12.80;99.90;;;;;;5078787;28;20048;-80
2023/05/10 06:13:58;;;;;;;2.95;1.63;;;12.80;99.90;;;;;;5060262;28;20499;-80
2023/05/10 06:16:23;;;;;;;2.88;1.45;;;12.80;99.90;;;;;;5077151;28;20155;-80
2023/05/10 06:18:49;;;;;;;2.78;1.50;;;12.80;99.90;;;;;;5076559;28;20048;-80
2023/05/10 06:21:16;;;;;;;4.07;1.55;;;12.90;99.90;;;;;;5042762;28;20044;-80
2023/05/10 06:23:42;;;;;;;2.47;1.50;;;12.90;99.90;;;;;;5061285;28;20033;-80
2023/05/10 06:26:07;;;;;;;2.22;1.60;;;12.90;99.90;;;;;;5053426;28;20027;-80
2023/05/10 06:28:33;;;;;;;1.88;1.13;;;13.00;99.90;;;;;;5057418;28;20473;-80
2023/05/10 06:30:59;;;;;;;1.98;1.38;;;13.10;99.90;;;;;;5058254;28;20033;-80
2023/05/10 06:33:25;;;;;;;2.25;1.70;;;13.10;99.90;;;;;;5058354;28;20025;-80
2023/05/10 06:35:51;;;;;;;3.13;1.92;;;13.20;99.90;;;;;;5038813;28;20468;-80
2023/05/10 06:38:17;;;;;;;2.85;1.92;;;13.20;99.90;;;;;;5058051;28;20055;-79
2023/05/10 06:40:43;;;;;;;2.22;1.50;;;13.30;99.90;;;;;;5056500;28;20024;-80
2023/05/10 06:43:09;;;;;;;2.55;1.60;;;13.30;99.90;;;;;;5052949;28;20496;-79
2023/05/10 06:45:34;;;;;;;3.45;2.10;;;13.30;99.90;;;;;;5047558;28;20028;-80
2023/05/10 06:48:00;;;;;;;2.55;1.75;;;13.30;99.90;;;;;;5022278;28;20141;-79
2023/05/10 06:50:26;;;;;;;4.53;2.67;;;13.30;99.90;;;;;;5057665;28;20036;-80
2023/05/10 06:52:52;;;;;;;4.55;3.15;;;13.30;99.90;;;;;;5057244;28;20396;-80
2023/05/10 06:55:18;;;;;;;3.15;1.90;;;13.30;99.90;;;;;;5074482;28;20501;-80
2023/05/10 06:57:43;;;;;;;3.88;1.80;;;13.30;99.90;;;;;;5052901;28;20024;-80
2023/05/10 07:00:10;;;;;;;3.53;1.70;;;13.30;99.90;;;;;;5066182;28;20025;-80
2023/05/10 07:02:35;;;;;;;4.03;1.65;;;13.20;99.90;;;;;;5041761;28;20031;-80
2023/05/10 07:05:01;;;;;;;3.60;1.48;;;13.30;99.90;;;;;;5072580;28;20021;-81
2023/05/10 07:07:28;;;;;;;3.20;1.30;;;13.30;99.90;;;;;;5058433;28;20396;-80
2023/05/10 07:09:54;;;;;;;2.58;1.38;;;13.30;99.90;;;;;;5046901;28;20481;-80
2023/05/10 07:12:20;;;;;;;2.15;1.20;;;13.30;99.90;;;;;;5044042;28;20123;-80
2023/05/10 07:14:46;;;;;;;2.10;1.20;;;13.30;99.90;;;;;;5056138;28;20052;-81
2023/05/10 07:17:12;;;;;;;2.05;1.25;;;13.30;99.90;;;;;;5067472;28;20036;-81
2023/05/10 07:19:37;;;;;;;2.70;1.48;;;13.30;99.90;;;;;;5050313;28;20021;-80
2023/05/10 07:22:03;;;;;;;2.67;1.50;;;13.40;99.90;;;;;;5031036;28;20032;-81
2023/05/10 07:24:30;;;;;;;4.03;1.35;;;13.30;99.90;;;;;;5063618;28;20032;-81
2023/05/10 07:26:56;;;;;;;3.90;1.20;;;13.20;99.90;;;;;;5045667;28;20035;-80
2023/05/10 07:29:22;;;;;;;4.30;1.20;;;13.20;99.90;;;;;;5045946;28;20024;-80
2023/05/10 07:31:47;;;;;;;1.73;1.00;;;13.20;99.90;;;;;;5070527;28;20029;-80
2023/05/10 07:34:13;;;;;;;2.13;1.10;;;13.10;99.90;;;;;;5063929;28;20029;-80
2023/05/10 07:36:39;;;;;;;2.47;1.30;;;13.00;99.90;;;;;;5041164;28;20033;-79
2023/05/10 07:39:05;;;;;;;4.10;1.30;;;13.00;99.90;;;;;;5060693;28;20032;-79
2023/05/10 07:41:30;;;;;;;2.90;1.05;;;12.90;99.90;;;;;;5055278;28;20043;-79
2023/05/10 07:43:56;;;;;;;5.70;1.95;;;12.90;99.90;;;;;;5073844;28;20107;-78
2023/05/10 07:46:22;;;;;;;7.07;3.92;;;12.80;99.90;;;;;;5067971;28;20037;-78
2023/05/10 07:48:47;;;;;;;5.03;3.15;;;12.80;99.90;;;;;;5077950;28;20033;-79
2023/05/10 07:51:13;;;;;;;4.47;2.40;;;12.70;99.90;;;;;;5067944;28;20096;-79
2023/05/10 07:53:39;;;;;;;4.05;1.63;;;12.70;99.90;;;;;;5068990;28;20033;-79
2023/05/10 07:56:22;;;;;;;3.85;1.65;;;12.80;99.90;;;;;;5068486;28;20040;-79
2023/05/10 07:58:47;;;;;;;1.50;0.93;;;12.80;99.90;;;;;;5086285;28;20016;-79
2023/05/10 08:01:13;;;;;;;2.17;0.80;;;12.70;99.90;;;;;;5086598;28;20035;-78
2023/05/10 08:03:39;;;;;;;1.65;0.95;;;12.80;99.90;;;;;;5067134;28;20025;-79
2023/05/10 08:06:05;;;;;;;4.43;2.42;;;12.80;99.90;;;;;;5054258;28;20025;-79
2023/05/10 08:08:31;;;;;;;6.22;3.30;;;12.80;99.90;;;;;;5068432;28;20056;-79
2023/05/10 08:10:56;;;;;;;4.10;2.40;;;12.80;99.90;;;;;;5047208;28;20032;-79
2023/05/10 08:13:22;;;;;;;2.53;1.00;;;12.80;99.90;;;;;;5031538;28;20025;-79
2023/05/10 08:15:48;;;;;;;2.13;0.90;;;12.80;99.90;;;;;;5067747;28;20025;-79
2023/05/10 08:18:13;;;;;;;3.10;1.00;;;12.80;99.90;;;;;;5053425;28;20036;-79
2023/05/10 08:20:39;;;;;;;2.92;0.93;;;12.80;99.90;;;;;;5036065;28;20024;-78
2023/05/10 08:23:05;;;;;;;1.55;0.85;;;12.80;99.90;;;;;;5048904;28;20053;-78
2023/05/10 08:25:31;;;;;;;3.42;1.20;;;12.80;99.90;;;;;;5077511;28;20032;-78
2023/05/10 08:27:57;;;;;;;4.57;1.50;;;12.90;99.90;;;;;;5083678;28;20028;-78
2023/05/10 08:30:22;;;;;;;1.80;1.23;;;12.90;99.90;;;;;;5065890;28;20387;-79
2023/05/10 08:32:48;;;;;;;2.95;1.65;;;12.90;99.90;;;;;;5082831;28;20031;-78
2023/05/10 08:35:14;;;;;;;3.42;1.83;;;13.00;99.90;;;;;;5065984;28;20039;-78
2023/05/10 08:37:39;;;;;;;4.35;1.70;;;13.00;99.90;;;;;;5081380;28;20032;-78
2023/05/10 08:40:06;;;;;;;2.88;1.40;;;13.00;99.90;;;;;;5082481;28;20025;-78
2023/05/10 08:42:36;;;;;;;2.85;1.42;;;13.00;99.90;;;;;;5081102;28;20028;-79
2023/05/10 08:45:03;;;;;;;2.60;1.00;;;13.00;99.90;;;;;;5074652;28;20117;-79
2023/05/10 08:47:29;;;;;;;2.42;0.80;;;13.00;99.90;;;;;;5043030;28;20054;-79
2023/05/10 08:49:56;;;;;;;1.95;0.80;;;13.00;99.90;;;;;;5059901;28;20051;-79
2023/05/10 08:52:26;;;;;;;2.00;1.40;;;13.10;99.90;;;;;;5059330;28;20032;-79
2023/05/10 08:54:51;;;;;;;5.03;1.80;;;13.10;99.90;;;;;;5067872;28;20205;-79
2023/05/10 08:57:19;;;;;;;3.00;1.27;;;13.20;99.90;;;;;;5064391;28;20110;-79
2023/05/10 08:59:45;;;;;;;2.78;0.90;;;13.20;99.90;;;;;;5099803;28;20021;-79
2023/05/10 09:02:12;;;;;;;2.70;0.68;;;13.20;99.90;;;;;;5082181;28;20067;-79
2023/05/10 09:04:38;;;;;;;2.33;0.70;;;13.20;99.90;;;;;;5082217;28;20070;-79
2023/05/10 09:07:04;;;;;;;2.85;0.70;;;13.20;99.90;;;;;;5048219;28;20484;-79
2023/05/10 09:09:30;;;;;;;1.08;0.60;;;13.30;99.90;;;;;;5081674;28;20477;-79
2023/05/10 09:11:56;;;;;;;0.95;0.40;;;13.30;99.90;;;;;;5060015;28;20443;-79
2023/05/10 09:14:24;;;;;;;1.15;0.50;;;13.30;99.90;;;;;;5068146;28;20063;-79
2023/05/10 09:16:50;;;;;;;0.50;0.40;;;13.30;99.90;;;;;;5062013;28;20109;-79
2023/05/10 09:19:15;;;;;;;1.23;0.68;;;13.30;99.90;;;;;;5052328;28;20055;-79
2023/05/10 09:21:41;;;;;;;2.22;0.43;;;13.30;99.90;;;;;;5032177;28;20050;-79
2023/05/10 09:24:08;;;;;;;0.70;0.40;;;13.30;99.90;;;;;;5073992;28;20568;-79
2023/05/10 09:26:35;;;;;;;1.40;0.60;;;13.40;99.90;;;;;;5053908;28;20036;-79
2023/05/10 09:29:02;;;;;;;1.80;0.60;;;13.40;99.90;;;;;;5054399;28;20060;-78
2023/05/10 09:31:46;;;;;;;2.58;1.20;;;13.50;99.90;;;;;;5068317;28;20027;-79
2023/05/10 09:34:15;;;;;;;2.00;1.00;;;13.40;99.90;;;;;;5080526;28;20058;-78
2023/05/10 09:36:56;;;;;;;2.58;1.20;;;13.40;99.90;;;;;;5069874;28;20056;-79
2023/05/10 09:39:31;;;;;;;1.13;0.40;;;13.40;99.90;;;;;;5075241;28;20036;-78
2023/05/10 09:41:57;;;;;;;1.92;1.00;;;13.40;99.90;;;;;;5057580;28;20021;-78
2023/05/10 09:44:23;;;;;;;2.53;1.00;;;13.40;99.90;;;;;;5077612;28;20021;-79
2023/05/10 09:46:50;;;;;;;1.60;0.75;;;13.30;99.90;;;;;;5065297;28;20039;-79
2023/05/10 09:49:16;;;;;;;1.70;0.80;;;13.30;99.90;;;;;;5081659;28;20024;-79
2023/05/10 09:51:41;;;;;;;2.60;1.80;;;13.40;99.90;;;;;;5062105;28;20055;-78
2023/05/10 09:54:15;;;;;;;1.38;0.65;;;13.40;99.90;;;;;;5078048;28;20082;-79
2023/05/10 09:56:41;;;;;;;1.02;0.65;;;13.50;99.90;;;;;;5080877;28;20028;-79
2023/05/10 09:59:12;;;;;;;8.80;2.20;;;13.50;99.90;;;;;;5081360;28;20044;-79
2023/05/10 10:01:38;;;;;;;3.00;0.85;;;13.60;99.90;;;;;;5081484;28;20553;-79
2023/05/10 10:04:06;;;;;;;2.08;1.00;;;13.60;99.90;;;;;;5081988;28;20082;-79
2023/05/10 10:06:39;;;;;;;2.50;1.42;;;13.70;99.90;;;;;;5064692;28;20032;-79
2023/05/10 10:09:08;;;;;;;1.60;0.93;;;13.70;99.90;;;;;;5099560;28;20464;-79
2023/05/10 10:11:35;;;;;;;1.83;0.88;;;13.80;99.90;;;;;;5098914;28;20028;-79
2023/05/10 10:14:01;;;;;;;2.45;0.70;;;13.80;99.90;;;;;;5065125;28;20032;-79
2023/05/10 10:16:29;;;;;;;1.38;0.60;;;13.90;99.90;;;;;;5098875;28;20039;-79
2023/05/10 10:18:56;;;;;;;1.33;0.50;;;13.90;99.90;;;;;;5079814;28;20090;-79
2023/05/10 10:21:22;;;;;;;1.63;0.50;;;14.00;99.90;;;;;;5079943;28;20048;-79
2023/05/10 10:23:48;;;;;;;0.82;0.45;;;14.10;99.90;;;;;;5097434;28;20020;-79
2023/05/10 10:26:15;;;;;;;0.80;0.50;;;14.10;99.90;;;;;;5050250;28;20021;-80
2023/05/10 10:28:56;;;;;;;1.13;0.57;;;14.20;99.90;;;;;;5075643;28;20508;-80
2023/05/10 10:31:38;;;;;;;;;;;14.20;99.90;;;;;;5062424;28;20017;-79
2023/05/10 10:34:10;;;;;;;1.48;0.80;;;14.20;99.90;;;;;;5071597;28;19911;-79
2023/05/10 10:36:45;;;;;;;1.02;0.70;;;14.20;99.90;;;;;;5074741;28;20032;-80
2023/05/10 10:39:12;;;;;;;0.85;0.57;;;14.30;99.90;;;;;;5058063;28;20024;-79
2023/05/10 10:41:50;;;;;;;0.45;0.30;;;14.40;99.90;;;;;;5074866;28;20393;-80
2023/05/10 10:44:29;;;;;;;1.50;0.60;;;14.50;99.90;;;;;;5076272;28;20021;-80
2023/05/10 10:47:18;;;;;;;1.13;0.60;;;14.50;99.90;;;;;;5074692;28;20031;-80
2023/05/10 10:49:44;;;;;;;4.78;0.90;;;14.70;99.90;;;;;;5076177;28;20063;-80
2023/05/10 10:52:23;;;;;;;3.40;0.40;;;14.80;99.90;;;;;;5074784;28;20384;-80
2023/05/10 10:54:57;;;;;;;0.60;0.30;;;14.90;99.90;;;;;;5075642;28;20020;-80
2023/05/10 10:57:22;;;;;;;2.30;0.30;;;14.90;99.90;;;;;;5058729;28;20039;-80
2023/05/10 10:59:48;;;;;;;0.85;0.38;;;14.90;99.90;;;;;;5057809;28;20024;-80
2023/05/10 11:02:53;;;;;;;1.95;0.50;;;14.90;99.90;;;;;;5057543;28;20037;-80
2023/05/10 11:05:27;;;;;;;1.15;0.30;;;15.00;99.90;;;;;;5074927;28;20035;-80
2023/05/10 11:07:58;;;;;;;1.08;0.30;;;14.90;99.90;;;;;;5074507;28;20439;-80
2023/05/10 11:10:25;;;;;;;1.42;0.30;;;14.90;99.90;;;;;;5075657;28;20024;-80
2023/05/10 11:13:05;;;;;;;1.10;0.20;;;14.90;99.90;;;;;;5040881;28;20400;-80
2023/05/10 11:15:35;;;;;;;0.20;0.20;;;14.80;99.90;;;;;;5074129;28;20032;-80
2023/05/10 11:18:20;;;;;;;0.65;0.50;;;14.70;99.90;;;;;;5075253;28;20484;-80
2023/05/10 11:20:55;;;;;;;0.47;0.25;;;14.60;99.90;;;;;;5073757;28;20548;-80
2023/05/10 11:23:21;;;;;;;0.52;0.30;;;14.60;99.90;;;;;;5074057;28;20081;-80
2023/05/10 11:25:49;;;;;;;0.20;0.20;;;14.60;99.90;;;;;;5057132;28;20111;-80
2023/05/10 11:28:18;;;;;;;1.23;0.30;;;14.60;99.90;;;;;;5057458;28;20499;-80
2023/05/10 11:30:45;;;;;;;0.55;0.28;;;14.60;99.90;;;;;;5073006;28;20021;-80
2023/05/10 11:33:19;;;;;;;0.17;0.17;;;14.70;99.90;;;;;;5047109;28;20047;-80
2023/05/10 11:35:45;;;;;;;0.50;0.25;;;14.70;99.90;;;;;;5054434;28;20502;-80
2023/05/10 11:38:12;;;;;;;0.60;0.30;;;14.70;99.90;;;;;;5074090;28;20063;-80
2023/05/10 11:40:39;;;;;;;0.40;0.30;;;14.70;99.90;;;;;;5054252;28;20053;-80
2023/05/10 11:43:07;;;;;;;0.52;0.30;;;14.70;99.90;;;;;;5020603;28;20036;-80
2023/05/10 11:45:34;;;;;;;0.75;0.30;;;14.80;99.90;;;;;;5054935;28;20025;-80
2023/05/10 11:48:00;;;;;;;0.20;0.20;;;14.90;99.90;;;;;;5054695;28;20474;-80
2023/05/10 11:50:26;;;;;;;0.30;0.13;;;14.90;99.90;;;;;;5062223;28;20021;-80
2023/05/10 11:52:54;;;;;;;1.00;0.50;;;15.00;99.90;;;;;;5057520;28;20086;-80
2023/05/10 11:55:19;;;;;;;1.08;0.35;;;15.10;99.90;;;;;;5068472;28;20053;-80
2023/05/10 11:57:46;;;;;;;0.50;0.30;;;15.00;99.90;;;;;;5047242;28;20482;-80
2023/05/10 12:00:15;;;;;;;0.57;0.30;;;15.00;99.90;;;;;;5059976;28;20032;-80
2023/05/10 12:02:41;;;;;;;0.93;0.32;;;15.00;99.90;;;;;;5053694;28;20032;-80
2023/05/10 12:05:07;;;;;;;2.35;0.30;;;15.00;99.90;;;;;;5077810;28;20021;-80
2023/05/10 12:07:33;;;;;;;0.60;0.30;;;15.00;99.90;;;;;;5041467;28;20090;-80
2023/05/10 12:10:10;;;;;;;1.63;0.65;;;15.00;99.90;;;;;;5058825;28;20060;-81
2023/05/10 12:12:47;;;;;;;0.50;0.40;;;15.00;99.90;;;;;;5079095;28;20040;-80
2023/05/10 12:15:22;;;;;;;0.73;0.32;;;14.80;99.90;;;;;;5056262;28;20025;-80
2023/05/10 12:17:49;;;;;;;0.63;0.20;;;14.60;99.90;;;;;;5042051;28;20032;-80
2023/05/10 12:20:23;;;;;;;0.40;0.20;;;14.50;99.90;;;;;;5059395;28;20044;-80
2023/05/10 12:22:51;;;;;;;1.02;0.22;;;14.40;99.90;;;;;;5059775;28;20045;-80
2023/05/10 12:25:18;;;;;;;0.45;0.20;;;14.30;99.90;;;;;;5053361;28;20031;-80
2023/05/10 12:27:50;;;;;;;0.50;0.20;;;14.20;99.90;;;;;;5053841;28;20485;-79
2023/05/10 12:30:23;;;;;;;1.05;0.30;;;14.20;99.90;;;;;;5076874;28;20020;-79
2023/05/10 12:32:48;;;;;;;0.77;0.25;;;14.20;99.90;;;;;;5061991;28;20032;-79
2023/05/10 12:35:15;;;;;;;0.60;0.20;;;14.30;99.90;;;;;;5059287;28;20031;-79
2023/05/10 12:37:42;;;;;;;0.32;0.30;;;14.20;99.90;;;;;;5058736;28;20028;-80
2023/05/10 12:40:10;;;;;;;0.60;0.30;;;14.20;99.90;;;;;;5058205;28;20033;-80
2023/05/10 12:42:36;;;;;;;0.50;0.30;;;14.20;99.90;;;;;;5050838;28;20094;-80
2023/05/10 12:45:02;;;;;;;0.73;0.20;;;14.30;99.90;;;;;;5038067;28;20032;-80
2023/05/10 12:47:28;;;;;;;0.88;0.30;;;14.30;99.90;;;;;;5053221;28;20028;-80
2023/05/10 12:49:54;;;;;;;0.40;0.20;;;14.40;99.90;;;;;;5074525;28;20025;-80
2023/05/10 12:52:20;;;;;;;0.47;0.28;;;14.60;99.90;;;;;;5054052;28;20027;-80